sensor_id;sensor_type;location;lat;lon;timestamp;pressure;altitude;pressure_sealevel;temperature;humidity
16190;BME280;41754;51.498;7.540;2024-01-15T00:02:23;98941.06;;;0.88;96.65
16190;BME280;41754;51.498;7.540;2024-01-15T00:04:51;98939.81;;;0.78;97.11
16190;BME280;41754;51.498;7.540;2024-01-15T00:07:19;98939.34;;;0.69;97.36
16190;BME280;41754;51.498;7.540;2024-01-15T00:09:47;98927.44;;;0.84;97.11
16190;BME280;41754;51.498;7.540;2024-01-15T00:12:15;98927.91;;;0.92;96.86
16190;BME280;41754;51.498;7.540;2024-01-15T00:14:43;98922.97;;;0.69;97.22
16190;BME280;41754;51.498;7.540;2024-01-15T00:17:11;98925.78;;;1.01;96.07
16190;BME280;41754;51.498;7.540;2024-01-15T00:19:40;98921.25;;;0.87;96.47
16190;BME280;41754;51.498;7.540;2024-01-15T00:22:08;98900.94;;;0.97;96.73
16190;BME280;41754;51.498;7.540;2024-01-15T00:24:37;98908.44;;;1.03;96.05
16190;BME280;41754;51.498;7.540;2024-01-15T00:27:05;98907.47;;;0.86;96.18
16190;BME280;41754;51.498;7.540;2024-01-15T00:29:33;98907.41;;;1.05;96.63
16190;BME280;41754;51.498;7.540;2024-01-15T00:32:01;98911.09;;;1.01;96.90
16190;BME280;41754;51.498;7.540;2024-01-15T00:34:29;98903.28;;;0.84;96.16
16190;BME280;41754;51.498;7.540;2024-01-15T00:36:58;98899.34;;;0.94;96.50
16190;BME280;41754;51.498;7.540;2024-01-15T00:39:26;98894.41;;;0.89;96.71
16190;BME280;41754;51.498;7.540;2024-01-15T00:41:54;98896.16;;;0.89;96.57
16190;BME280;41754;51.498;7.540;2024-01-15T00:44:21;98900.72;;;1.01;96.77
16190;BME280;41754;51.498;7.540;2024-01-15T00:46:49;98894.47;;;0.88;97.22
16190;BME280;41754;51.498;7.540;2024-01-15T00:49:17;98905.84;;;1.03;96.50
16190;BME280;41754;51.498;7.540;2024-01-15T00:51:45;98895.97;;;0.92;96.49
16190;BME280;41754;51.498;7.540;2024-01-15T00:54:15;98893.09;;;0.98;96.15
16190;BME280;41754;51.498;7.540;2024-01-15T00:56:43;98903.47;;;0.98;96.25
16190;BME280;41754;51.498;7.540;2024-01-15T00:59:11;98896.78;;;1.11;95.74
16190;BME280;41754;51.498;7.540;2024-01-15T01:01:42;98906.22;;;1.13;95.95
16190;BME280;41754;51.498;7.540;2024-01-15T01:04:10;98895.00;;;1.12;95.33
16190;BME280;41754;51.498;7.540;2024-01-15T01:06:40;98898.28;;;1.16;95.66
16190;BME280;41754;51.498;7.540;2024-01-15T01:09:07;98892.53;;;1.28;95.55
16190;BME280;41754;51.498;7.540;2024-01-15T01:11:37;98901.47;;;1.03;95.90
16190;BME280;41754;51.498;7.540;2024-01-15T01:14:05;98896.00;;;1.27;95.44
16190;BME280;41754;51.498;7.540;2024-01-15T01:16:33;98894.72;;;1.36;94.91
16190;BME280;41754;51.498;7.540;2024-01-15T01:19:05;98896.78;;;1.46;94.17
16190;BME280;41754;51.498;7.540;2024-01-15T01:21:34;98893.06;;;1.35;94.01
16190;BME280;41754;51.498;7.540;2024-01-15T01:24:02;98893.34;;;1.28;94.64
16190;BME280;41754;51.498;7.540;2024-01-15T01:26:30;98898.59;;;1.09;95.64
16190;BME280;41754;51.498;7.540;2024-01-15T01:29:00;98897.25;;;1.02;96.52
16190;BME280;41754;51.498;7.540;2024-01-15T01:31:28;98905.63;;;1.25;95.75
16190;BME280;41754;51.498;7.540;2024-01-15T01:33:56;98905.97;;;1.17;95.88
16190;BME280;41754;51.498;7.540;2024-01-15T01:36:24;98897.25;;;1.02;96.91
16190;BME280;41754;51.498;7.540;2024-01-15T01:38:52;98891.59;;;0.94;95.85
16190;BME280;41754;51.498;7.540;2024-01-15T01:41:20;98890.50;;;0.98;96.65
16190;BME280;41754;51.498;7.540;2024-01-15T01:43:47;98894.06;;;0.78;96.49
16190;BME280;41754;51.498;7.540;2024-01-15T01:46:17;98890.06;;;1.25;95.80
16190;BME280;41754;51.498;7.540;2024-01-15T01:48:45;98888.81;;;0.97;95.84
16190;BME280;41754;51.498;7.540;2024-01-15T01:51:13;98888.75;;;0.99;95.84
16190;BME280;41754;51.498;7.540;2024-01-15T01:53:41;98897.38;;;0.99;96.24
16190;BME280;41754;51.498;7.540;2024-01-15T01:56:09;98883.22;;;0.89;96.09
16190;BME280;41754;51.498;7.540;2024-01-15T01:58:37;98879.69;;;0.90;96.42
16190;BME280;41754;51.498;7.540;2024-01-15T02:01:06;98869.19;;;0.93;96.92
16190;BME280;41754;51.498;7.540;2024-01-15T02:03:36;98874.72;;;0.85;96.59
16190;BME280;41754;51.498;7.540;2024-01-15T02:06:04;98871.78;;;0.93;97.36
16190;BME280;41754;51.498;7.540;2024-01-15T02:08:33;98877.50;;;1.35;94.88
16190;BME280;41754;51.498;7.540;2024-01-15T02:11:02;98881.47;;;1.24;94.67
16190;BME280;41754;51.498;7.540;2024-01-15T02:13:30;98884.97;;;1.23;94.33
16190;BME280;41754;51.498;7.540;2024-01-15T02:15:58;98885.97;;;1.21;94.85
16190;BME280;41754;51.498;7.540;2024-01-15T02:18:26;98881.16;;;0.96;95.00
16190;BME280;41754;51.498;7.540;2024-01-15T02:20:55;98887.16;;;0.96;95.58
16190;BME280;41754;51.498;7.540;2024-01-15T02:23:24;98887.31;;;0.93;96.28
16190;BME280;41754;51.498;7.540;2024-01-15T02:25:52;98895.72;;;1.33;95.10
16190;BME280;41754;51.498;7.540;2024-01-15T02:28:20;98888.94;;;1.13;95.02
16190;BME280;41754;51.498;7.540;2024-01-15T02:30:48;98885.50;;;1.30;94.58
16190;BME280;41754;51.498;7.540;2024-01-15T02:33:16;98883.81;;;1.11;94.83
16190;BME280;41754;51.498;7.540;2024-01-15T02:35:44;98886.66;;;1.24;94.17
16190;BME280;41754;51.498;7.540;2024-01-15T02:38:12;98889.75;;;1.14;94.68
16190;BME280;41754;51.498;7.540;2024-01-15T02:40:43;98896.91;;;1.08;95.68
16190;BME280;41754;51.498;7.540;2024-01-15T02:43:11;98902.72;;;1.14;94.68
16190;BME280;41754;51.498;7.540;2024-01-15T02:45:40;98886.56;;;1.08;94.40
16190;BME280;41754;51.498;7.540;2024-01-15T02:48:08;98896.00;;;1.27;93.80
16190;BME280;41754;51.498;7.540;2024-01-15T02:50:36;98891.06;;;1.40;93.27
16190;BME280;41754;51.498;7.540;2024-01-15T02:53:03;98877.97;;;1.08;93.88
16190;BME280;41754;51.498;7.540;2024-01-15T02:55:31;98889.91;;;1.10;93.90
16190;BME280;41754;51.498;7.540;2024-01-15T02:58:01;98879.63;;;1.26;92.77
16190;BME280;41754;51.498;7.540;2024-01-15T03:00:29;98884.81;;;1.26;92.71
16190;BME280;41754;51.498;7.540;2024-01-15T03:02:57;98884.44;;;1.17;93.42
16190;BME280;41754;51.498;7.540;2024-01-15T03:05:25;98875.28;;;1.27;93.18
16190;BME280;41754;51.498;7.540;2024-01-15T03:07:53;98887.78;;;1.36;92.76
16190;BME280;41754;51.498;7.540;2024-01-15T03:10:21;98882.91;;;1.13;93.45
16190;BME280;41754;51.498;7.540;2024-01-15T03:12:49;98881.56;;;1.23;93.49
16190;BME280;41754;51.498;7.540;2024-01-15T03:15:18;98891.84;;;1.24;93.08
16190;BME280;41754;51.498;7.540;2024-01-15T03:17:46;98882.06;;;1.12;94.17
16190;BME280;41754;51.498;7.540;2024-01-15T03:20:14;98894.53;;;0.86;94.06
16190;BME280;41754;51.498;7.540;2024-01-15T03:22:42;98894.03;;;1.15;93.83
16190;BME280;41754;51.498;7.540;2024-01-15T03:25:10;98887.59;;;0.87;94.93
16190;BME280;41754;51.498;7.540;2024-01-15T03:27:38;98878.66;;;0.94;94.34
16190;BME280;41754;51.498;7.540;2024-01-15T03:30:07;98894.06;;;0.78;94.99
16190;BME280;41754;51.498;7.540;2024-01-15T03:32:36;98886.34;;;0.96;94.88
16190;BME280;41754;51.498;7.540;2024-01-15T03:35:05;98884.91;;;1.07;93.71
16190;BME280;41754;51.498;7.540;2024-01-15T03:37:33;98896.63;;;1.15;93.03
16190;BME280;41754;51.498;7.540;2024-01-15T03:40:02;98895.34;;;0.69;94.90
16190;BME280;41754;51.498;7.540;2024-01-15T03:42:30;98899.91;;;0.64;95.99
16190;BME280;41754;51.498;7.540;2024-01-15T03:44:58;98899.75;;;0.67;96.55
16190;BME280;41754;51.498;7.540;2024-01-15T03:47:26;98890.84;;;0.73;95.65
16190;BME280;41754;51.498;7.540;2024-01-15T03:49:55;98903.19;;;0.68;96.16
16190;BME280;41754;51.498;7.540;2024-01-15T03:52:23;98894.13;;;0.77;95.71
16190;BME280;41754;51.498;7.540;2024-01-15T03:54:51;98886.31;;;0.78;95.84
16190;BME280;41754;51.498;7.540;2024-01-15T03:57:19;98895.69;;;0.98;95.22
16190;BME280;41754;51.498;7.540;2024-01-15T03:59:47;98889.28;;;1.05;94.64
16190;BME280;41754;51.498;7.540;2024-01-15T04:02:15;98887.19;;;1.31;93.69
16190;BME280;41754;51.498;7.540;2024-01-15T04:04:43;98880.56;;;1.08;93.63
16190;BME280;41754;51.498;7.540;2024-01-15T04:07:13;98884.38;;;1.01;94.40
16190;BME280;41754;51.498;7.540;2024-01-15T04:09:41;98884.22;;;1.21;93.37
16190;BME280;41754;51.498;7.540;2024-01-15T04:12:09;98861.19;;;1.15;92.83
16190;BME280;41754;51.498;7.540;2024-01-15T04:14:37;98861.44;;;1.28;92.86
16190;BME280;41754;51.498;7.540;2024-01-15T04:17:05;98855.44;;;1.27;92.81
16190;BME280;41754;51.498;7.540;2024-01-15T04:19:33;98865.41;;;1.18;93.38
16190;BME280;41754;51.498;7.540;2024-01-15T04:22:00;98852.31;;;1.21;92.64
16190;BME280;41754;51.498;7.540;2024-01-15T04:24:31;98848.34;;;1.31;92.71
16190;BME280;41754;51.498;7.540;2024-01-15T04:26:59;98841.72;;;1.08;93.31
16190;BME280;41754;51.498;7.540;2024-01-15T04:29:27;98844.06;;;1.30;92.00
16190;BME280;41754;51.498;7.540;2024-01-15T04:31:55;98835.53;;;0.93;93.95
16190;BME280;41754;51.498;7.540;2024-01-15T04:34:23;98837.44;;;0.89;94.22
16190;BME280;41754;51.498;7.540;2024-01-15T04:36:51;98832.88;;;0.95;95.15
16190;BME280;41754;51.498;7.540;2024-01-15T04:39:19;98837.97;;;0.96;94.54
16190;BME280;41754;51.498;7.540;2024-01-15T04:41:48;98840.56;;;0.96;94.57
16190;BME280;41754;51.498;7.540;2024-01-15T04:44:16;98844.38;;;0.89;94.28
16190;BME280;41754;51.498;7.540;2024-01-15T04:46:44;98836.28;;;0.78;94.61
16190;BME280;41754;51.498;7.540;2024-01-15T04:49:12;98837.41;;;0.72;95.51
16190;BME280;41754;51.498;7.540;2024-01-15T04:51:40;98822.44;;;1.14;95.04
16190;BME280;41754;51.498;7.540;2024-01-15T04:54:08;98820.97;;;1.25;93.45
16190;BME280;41754;51.498;7.540;2024-01-15T04:56:36;98819.38;;;1.23;92.20
16190;BME280;41754;51.498;7.540;2024-01-15T04:59:05;98809.03;;;1.23;92.37
16190;BME280;41754;51.498;7.540;2024-01-15T05:01:33;98814.72;;;1.12;92.42
16190;BME280;41754;51.498;7.540;2024-01-15T05:04:01;98806.22;;;1.27;92.81
16190;BME280;41754;51.498;7.540;2024-01-15T05:06:29;98809.34;;;1.17;92.17
16190;BME280;41754;51.498;7.540;2024-01-15T05:08:57;98811.47;;;1.26;93.05
16190;BME280;41754;51.498;7.540;2024-01-15T05:11:26;98808.31;;;1.37;92.29
16190;BME280;41754;51.498;7.540;2024-01-15T05:13:53;98808.09;;;1.41;92.19
16190;BME280;41754;51.498;7.540;2024-01-15T05:16:23;98823.47;;;1.27;92.00
16190;BME280;41754;51.498;7.540;2024-01-15T05:18:51;98810.81;;;1.38;92.38
16190;BME280;41754;51.498;7.540;2024-01-15T05:21:19;98808.47;;;1.34;91.44
16190;BME280;41754;51.498;7.540;2024-01-15T05:23:47;98800.72;;;1.16;92.73
16190;BME280;41754;51.498;7.540;2024-01-15T05:26:14;98804.09;;;1.52;92.26
16190;BME280;41754;51.498;7.540;2024-01-15T05:28:42;98805.88;;;1.34;92.13
16190;BME280;41754;51.498;7.540;2024-01-15T05:31:10;98796.09;;;1.39;92.39
16190;BME280;41754;51.498;7.540;2024-01-15T05:33:39;98809.28;;;1.52;91.67
16190;BME280;41754;51.498;7.540;2024-01-15T05:36:08;98809.28;;;1.52;91.00
16190;BME280;41754;51.498;7.540;2024-01-15T05:38:35;98809.88;;;1.57;90.07
16190;BME280;41754;51.498;7.540;2024-01-15T05:41:05;98806.31;;;1.42;91.15
16190;BME280;41754;51.498;7.540;2024-01-15T05:43:33;98806.09;;;1.46;91.83
16190;BME280;41754;51.498;7.540;2024-01-15T05:46:01;98800.16;;;1.44;91.40
16190;BME280;41754;51.498;7.540;2024-01-15T05:48:29;98803.94;;;1.55;90.60
16190;BME280;41754;51.498;7.540;2024-01-15T05:50:59;98801.84;;;1.61;90.75
16190;BME280;41754;51.498;7.540;2024-01-15T05:53:26;98801.34;;;1.71;90.54
16190;BME280;41754;51.498;7.540;2024-01-15T05:55:54;98806.91;;;1.80;89.98
16190;BME280;41754;51.498;7.540;2024-01-15T05:58:23;98796.34;;;1.67;89.42
16190;BME280;41754;51.498;7.540;2024-01-15T06:00:51;98796.53;;;1.80;89.08
16190;BME280;41754;51.498;7.540;2024-01-15T06:03:19;98805.88;;;1.67;89.44
16190;BME280;41754;51.498;7.540;2024-01-15T06:05:47;98804.53;;;1.60;90.18
16190;BME280;41754;51.498;7.540;2024-01-15T06:08:16;98803.19;;;1.69;90.41
16190;BME280;41754;51.498;7.540;2024-01-15T06:10:44;98799.19;;;1.63;90.60
16190;BME280;41754;51.498;7.540;2024-01-15T06:13:12;98791.66;;;1.74;89.73
16190;BME280;41754;51.498;7.540;2024-01-15T06:15:40;98786.81;;;1.68;89.94
16190;BME280;41754;51.498;7.540;2024-01-15T06:18:08;98787.63;;;1.53;89.63
16190;BME280;41754;51.498;7.540;2024-01-15T06:20:36;98787.78;;;1.50;89.99
16190;BME280;41754;51.498;7.540;2024-01-15T06:23:05;98789.28;;;1.54;90.29
16190;BME280;41754;51.498;7.540;2024-01-15T06:25:34;98791.44;;;1.45;90.42
16190;BME280;41754;51.498;7.540;2024-01-15T06:28:02;98779.94;;;1.51;90.48
16190;BME280;41754;51.498;7.540;2024-01-15T06:30:31;98779.78;;;1.70;89.98
16190;BME280;41754;51.498;7.540;2024-01-15T06:32:59;98786.66;;;1.71;89.63
16190;BME280;41754;51.498;7.540;2024-01-15T06:35:27;98776.63;;;1.65;89.04
16190;BME280;41754;51.498;7.540;2024-01-15T06:37:55;98780.94;;;1.48;89.94
16190;BME280;41754;51.498;7.540;2024-01-15T06:40:23;98773.44;;;1.60;90.05
16190;BME280;41754;51.498;7.540;2024-01-15T06:42:52;98776.47;;;1.68;89.42
16190;BME280;41754;51.498;7.540;2024-01-15T06:45:20;98776.09;;;1.58;89.57
16190;BME280;41754;51.498;7.540;2024-01-15T06:47:48;98774.41;;;1.57;89.75
16190;BME280;41754;51.498;7.540;2024-01-15T06:50:16;98773.34;;;1.77;89.92
16190;BME280;41754;51.498;7.540;2024-01-15T06:52:46;98775.94;;;1.77;89.78
16190;BME280;41754;51.498;7.540;2024-01-15T06:55:14;98765.34;;;1.66;89.91
16190;BME280;41754;51.498;7.540;2024-01-15T06:57:42;98778.94;;;1.54;89.81
16190;BME280;41754;51.498;7.540;2024-01-15T07:00:12;98786.81;;;1.68;89.76
16190;BME280;41754;51.498;7.540;2024-01-15T07:02:40;98778.78;;;1.57;90.38
16190;BME280;41754;51.498;7.540;2024-01-15T07:05:08;98783.63;;;1.63;89.98
16190;BME280;41754;51.498;7.540;2024-01-15T07:07:37;98792.63;;;1.56;90.14
16190;BME280;41754;51.498;7.540;2024-01-15T07:10:06;98788.53;;;1.52;90.53
16190;BME280;41754;51.498;7.540;2024-01-15T07:12:34;98781.81;;;1.65;90.57
16190;BME280;41754;51.498;7.540;2024-01-15T07:15:04;98788.25;;;1.74;89.95
16190;BME280;41754;51.498;7.540;2024-01-15T07:17:36;98783.63;;;1.63;90.17
16190;BME280;41754;51.498;7.540;2024-01-15T07:20:06;98783.88;;;1.58;90.51
16190;BME280;41754;51.498;7.540;2024-01-15T07:22:35;98784.81;;;1.73;89.75
16190;BME280;41754;51.498;7.540;2024-01-15T07:25:04;98782.53;;;1.67;90.14
16190;BME280;41754;51.498;7.540;2024-01-15T07:27:33;98788.31;;;1.72;89.60
16190;BME280;41754;51.498;7.540;2024-01-15T07:30:01;98783.28;;;1.53;90.42
16190;BME280;41754;51.498;7.540;2024-01-15T07:32:32;98773.28;;;1.63;90.36
16190;BME280;41754;51.498;7.540;2024-01-15T07:35:04;98779.59;;;1.57;90.35
16190;BME280;41754;51.498;7.540;2024-01-15T07:37:32;98779.44;;;1.44;90.98
16190;BME280;41754;51.498;7.540;2024-01-15T07:40:01;98780.72;;;1.85;89.70
16190;BME280;41754;51.498;7.540;2024-01-15T07:42:31;98771.34;;;1.82;89.25
16190;BME280;41754;51.498;7.540;2024-01-15T07:44:59;98780.50;;;1.90;88.84
16190;BME280;41754;51.498;7.540;2024-01-15T07:47:27;98778.47;;;1.63;89.81
16190;BME280;41754;51.498;7.540;2024-01-15T07:49:55;98766.59;;;1.75;89.66
16190;BME280;41754;51.498;7.540;2024-01-15T07:52:30;98782.22;;;1.89;88.40
16190;BME280;41754;51.498;7.540;2024-01-15T07:54:58;98781.31;;;1.90;89.15
16190;BME280;41754;51.498;7.540;2024-01-15T07:57:27;98793.47;;;1.90;88.08
16190;BME280;41754;51.498;7.540;2024-01-15T07:59:55;98773.94;;;1.82;88.49
16190;BME280;41754;51.498;7.540;2024-01-15T08:02:23;98774.94;;;1.96;87.64
16190;BME280;41754;51.498;7.540;2024-01-15T08:04:50;98773.28;;;1.95;88.42
16190;BME280;41754;51.498;7.540;2024-01-15T08:07:18;98780.06;;;1.97;87.45
16190;BME280;41754;51.498;7.540;2024-01-15T08:09:48;98781.06;;;1.95;88.22
16190;BME280;41754;51.498;7.540;2024-01-15T08:12:16;98780.22;;;1.78;88.13
16190;BME280;41754;51.498;7.540;2024-01-15T08:14:44;98778.53;;;1.77;88.53
16190;BME280;41754;51.498;7.540;2024-01-15T08:17:12;98775.19;;;1.75;88.59
16190;BME280;41754;51.498;7.540;2024-01-15T08:19:39;98777.47;;;1.81;88.63
16190;BME280;41754;51.498;7.540;2024-01-15T08:22:08;98768.25;;;1.60;90.24
16190;BME280;41754;51.498;7.540;2024-01-15T08:24:36;98765.06;;;1.71;89.99
16190;BME280;41754;51.498;7.540;2024-01-15T08:27:05;98766.25;;;1.65;89.90
16190;BME280;41754;51.498;7.540;2024-01-15T08:29:33;98763.81;;;1.62;90.01
16190;BME280;41754;51.498;7.540;2024-01-15T08:32:01;98753.84;;;1.54;91.09
16190;BME280;41754;51.498;7.540;2024-01-15T08:34:29;98768.16;;;1.77;90.78
16190;BME280;41754;51.498;7.540;2024-01-15T08:36:58;98769.09;;;1.76;91.11
16190;BME280;41754;51.498;7.540;2024-01-15T08:39:26;98773.31;;;1.45;91.69
16190;BME280;41754;51.498;7.540;2024-01-15T08:41:54;98767.53;;;1.40;92.15
16190;BME280;41754;51.498;7.540;2024-01-15T08:44:23;98767.09;;;1.32;93.07
16190;BME280;41754;51.498;7.540;2024-01-15T08:46:51;98771.50;;;1.47;92.75
16190;BME280;41754;51.498;7.540;2024-01-15T08:49:19;98766.50;;;1.27;93.57
16190;BME280;41754;51.498;7.540;2024-01-15T08:51:47;98772.56;;;1.43;93.53
16190;BME280;41754;51.498;7.540;2024-01-15T08:54:15;98772.88;;;1.37;93.68
16190;BME280;41754;51.498;7.540;2024-01-15T08:56:44;98785.22;;;1.32;93.52
16190;BME280;41754;51.498;7.540;2024-01-15T08:59:12;98782.53;;;1.51;94.02
16190;BME280;41754;51.498;7.540;2024-01-15T09:01:41;98778.25;;;1.50;93.21
16190;BME280;41754;51.498;7.540;2024-01-15T09:04:09;98790.94;;;1.39;93.58
16190;BME280;41754;51.498;7.540;2024-01-15T09:06:37;98772.19;;;1.67;93.10
16190;BME280;41754;51.498;7.540;2024-01-15T09:09:05;98778.22;;;1.83;92.48
16190;BME280;41754;51.498;7.540;2024-01-15T09:11:33;98783.81;;;1.42;93.39
16190;BME280;41754;51.498;7.540;2024-01-15T09:14:01;98786.59;;;1.39;93.10
16190;BME280;41754;51.498;7.540;2024-01-15T09:16:29;98787.28;;;1.59;92.75
16190;BME280;41754;51.498;7.540;2024-01-15T09:18:59;98787.94;;;1.46;93.49
16190;BME280;41754;51.498;7.540;2024-01-15T09:21:27;98796.56;;;1.47;93.00
16190;BME280;41754;51.498;7.540;2024-01-15T09:23:55;98796.69;;;1.61;92.20
16190;BME280;41754;51.498;7.540;2024-01-15T09:26:23;98795.94;;;1.59;91.81
16190;BME280;41754;51.498;7.540;2024-01-15T09:28:51;98790.56;;;1.29;92.98
16190;BME280;41754;51.498;7.540;2024-01-15T09:31:19;98791.41;;;1.29;93.28
16190;BME280;41754;51.498;7.540;2024-01-15T09:33:48;98788.75;;;1.31;93.45
16190;BME280;41754;51.498;7.540;2024-01-15T09:36:19;98791.72;;;1.57;93.12
16190;BME280;41754;51.498;7.540;2024-01-15T09:38:47;98792.69;;;1.72;92.09
16190;BME280;41754;51.498;7.540;2024-01-15T09:41:15;98787.03;;;1.47;92.85
16190;BME280;41754;51.498;7.540;2024-01-15T09:43:44;98796.16;;;1.55;93.04
16190;BME280;41754;51.498;7.540;2024-01-15T09:46:12;98782.13;;;1.59;92.04
16190;BME280;41754;51.498;7.540;2024-01-15T09:48:41;98793.13;;;1.46;92.48
16190;BME280;41754;51.498;7.540;2024-01-15T09:51:09;98787.19;;;1.44;93.48
16190;BME280;41754;51.498;7.540;2024-01-15T09:53:41;98800.00;;;1.47;93.42
16190;BME280;41754;51.498;7.540;2024-01-15T09:56:10;98800.00;;;1.47;93.28
16190;BME280;41754;51.498;7.540;2024-01-15T09:58:39;98793.88;;;1.48;93.50
16190;BME280;41754;51.498;7.540;2024-01-15T10:01:08;98802.16;;;1.39;93.14
16190;BME280;41754;51.498;7.540;2024-01-15T10:03:36;98806.84;;;1.48;92.60
16190;BME280;41754;51.498;7.540;2024-01-15T10:06:06;98801.53;;;1.67;92.23
16190;BME280;41754;51.498;7.540;2024-01-15T10:08:36;98800.47;;;1.38;92.76
16190;BME280;41754;51.498;7.540;2024-01-15T10:11:07;98798.09;;;1.34;93.19
16190;BME280;41754;51.498;7.540;2024-01-15T10:13:35;98792.91;;;1.34;94.11
16190;BME280;41754;51.498;7.540;2024-01-15T10:16:07;98801.50;;;1.52;93.04
16190;BME280;41754;51.498;7.540;2024-01-15T10:18:35;98793.72;;;1.52;92.28
16190;BME280;41754;51.498;7.540;2024-01-15T10:21:04;98795.44;;;1.35;93.69
16190;BME280;41754;51.498;7.540;2024-01-15T10:23:33;98789.88;;;1.43;93.71
16190;BME280;41754;51.498;7.540;2024-01-15T10:26:03;98793.56;;;1.55;93.51
16190;BME280;41754;51.498;7.540;2024-01-15T10:28:32;98798.97;;;1.34;92.74
16190;BME280;41754;51.498;7.540;2024-01-15T10:31:00;98795.59;;;1.32;93.68
16190;BME280;41754;51.498;7.540;2024-01-15T10:33:28;98786.97;;;1.65;92.98
16190;BME280;41754;51.498;7.540;2024-01-15T10:35:57;98791.56;;;1.60;92.58
16190;BME280;41754;51.498;7.540;2024-01-15T10:38:25;98786.66;;;1.71;92.44
16190;BME280;41754;51.498;7.540;2024-01-15T10:40:55;98786.97;;;1.65;92.23
16190;BME280;41754;51.498;7.540;2024-01-15T10:43:23;98782.50;;;1.84;91.69
16190;BME280;41754;51.498;7.540;2024-01-15T10:45:56;98784.31;;;1.82;91.08
16190;BME280;41754;51.498;7.540;2024-01-15T10:48:24;98785.16;;;1.99;89.69
16190;BME280;41754;51.498;7.540;2024-01-15T10:50:55;98785.13;;;1.67;91.13
16190;BME280;41754;51.498;7.540;2024-01-15T10:53:24;98793.09;;;1.80;90.66
16190;BME280;41754;51.498;7.540;2024-01-15T10:55:52;98794.84;;;1.63;90.80
16190;BME280;41754;51.498;7.540;2024-01-15T10:58:20;98786.97;;;1.81;89.74
16190;BME280;41754;51.498;7.540;2024-01-15T11:00:50;98792.16;;;1.65;90.84
16190;BME280;41754;51.498;7.540;2024-01-15T11:03:19;98785.91;;;1.85;90.34
16190;BME280;41754;51.498;7.540;2024-01-15T11:05:48;98790.66;;;1.93;88.89
16190;BME280;41754;51.498;7.540;2024-01-15T11:08:17;98799.59;;;1.55;90.31
16190;BME280;41754;51.498;7.540;2024-01-15T11:10:46;98795.03;;;1.92;89.23
16190;BME280;41754;51.498;7.540;2024-01-15T11:13:19;98797.78;;;1.89;89.16
16190;BME280;41754;51.498;7.540;2024-01-15T11:15:57;98789.00;;;1.76;90.05
16190;BME280;41754;51.498;7.540;2024-01-15T11:18:28;98789.28;;;2.03;88.53
16190;BME280;41754;51.498;7.540;2024-01-15T11:21:22;98782.47;;;2.48;87.94
16190;BME280;41754;51.498;7.540;2024-01-15T11:23:53;98796.50;;;2.60;86.15
16190;BME280;41754;51.498;7.540;2024-01-15T11:26:30;98790.88;;;1.90;87.79
16190;BME280;41754;51.498;7.540;2024-01-15T11:29:01;98788.00;;;2.10;87.34
16190;BME280;41754;51.498;7.540;2024-01-15T11:31:56;98784.38;;;1.81;89.05
16190;BME280;41754;51.498;7.540;2024-01-15T11:34:51;98781.72;;;2.14;87.86
16190;BME280;41754;51.498;7.540;2024-01-15T11:37:20;98786.75;;;2.01;88.22
16190;BME280;41754;51.498;7.540;2024-01-15T11:39:51;98781.81;;;2.13;87.50
16190;BME280;41754;51.498;7.540;2024-01-15T11:42:21;98791.69;;;2.06;85.93
16190;BME280;41754;51.498;7.540;2024-01-15T11:44:50;98782.31;;;1.88;86.54
16190;BME280;41754;51.498;7.540;2024-01-15T11:50:30;98779.97;;;1.99;87.52
16190;BME280;41754;51.498;7.540;2024-01-15T11:53:00;98786.00;;;2.15;86.64
16190;BME280;41754;51.498;7.540;2024-01-15T11:55:34;98783.66;;;2.27;85.87
16190;BME280;41754;51.498;7.540;2024-01-15T11:58:07;98777.94;;;2.36;85.35
16190;BME280;41754;51.498;7.540;2024-01-15T12:00:39;98780.50;;;1.90;85.85
16190;BME280;41754;51.498;7.540;2024-01-15T12:03:08;98773.13;;;1.98;85.40
16190;BME280;41754;51.498;7.540;2024-01-15T12:05:39;98783.00;;;2.07;86.60
16190;BME280;41754;51.498;7.540;2024-01-15T12:08:08;98781.47;;;1.87;87.03
16190;BME280;41754;51.498;7.540;2024-01-15T12:10:38;98794.09;;;1.77;86.99
16190;BME280;41754;51.498;7.540;2024-01-15T12:13:10;98783.13;;;1.72;87.09
16190;BME280;41754;51.498;7.540;2024-01-15T12:15:40;98777.13;;;1.88;87.62
16190;BME280;41754;51.498;7.540;2024-01-15T12:18:11;98781.81;;;1.81;86.53
16190;BME280;41754;51.498;7.540;2024-01-15T12:20:42;98773.69;;;1.87;87.14
16190;BME280;41754;51.498;7.540;2024-01-15T12:23:11;98782.88;;;1.93;86.73
16190;BME280;41754;51.498;7.540;2024-01-15T12:25:40;98781.22;;;1.76;87.28
16190;BME280;41754;51.498;7.540;2024-01-15T12:28:08;98778.81;;;1.89;87.14
16190;BME280;41754;51.498;7.540;2024-01-15T12:30:37;98785.16;;;1.99;87.21
16190;BME280;41754;51.498;7.540;2024-01-15T12:33:07;98793.38;;;2.07;86.66
16190;BME280;41754;51.498;7.540;2024-01-15T12:35:36;98793.19;;;2.10;85.70
16190;BME280;41754;51.498;7.540;2024-01-15T12:38:06;98783.31;;;2.01;86.22
16190;BME280;41754;51.498;7.540;2024-01-15T12:40:34;98781.13;;;2.41;85.32
16190;BME280;41754;51.498;7.540;2024-01-15T12:43:05;98776.19;;;2.36;84.83
16190;BME280;41754;51.498;7.540;2024-01-15T12:45:33;98775.75;;;2.44;84.02
16190;BME280;41754;51.498;7.540;2024-01-15T12:48:03;98775.50;;;2.33;84.12
16190;BME280;41754;51.498;7.540;2024-01-15T12:50:33;98775.75;;;2.44;84.95
16190;BME280;41754;51.498;7.540;2024-01-15T12:53:02;98791.59;;;2.70;83.65
16190;BME280;41754;51.498;7.540;2024-01-15T12:55:31;98786.31;;;2.41;83.81
16190;BME280;41754;51.498;7.540;2024-01-15T12:58:01;98792.94;;;2.31;84.95
16190;BME280;41754;51.498;7.540;2024-01-15T13:00:28;98798.06;;;2.16;85.18
16190;BME280;41754;51.498;7.540;2024-01-15T13:02:57;98792.59;;;2.37;84.90
16190;BME280;41754;51.498;7.540;2024-01-15T13:05:25;98798.28;;;1.96;85.04
16190;BME280;41754;51.498;7.540;2024-01-15T13:07:54;98797.38;;;2.29;85.33
16190;BME280;41754;51.498;7.540;2024-01-15T13:10:22;98807.59;;;2.00;85.05
16190;BME280;41754;51.498;7.540;2024-01-15T13:12:53;98797.38;;;1.97;85.86
16190;BME280;41754;51.498;7.540;2024-01-15T13:15:21;98802.66;;;2.11;85.93
16190;BME280;41754;51.498;7.540;2024-01-15T13:17:49;98803.06;;;2.19;86.84
16190;BME280;41754;51.498;7.540;2024-01-15T13:20:17;98816.31;;;2.15;83.93
16190;BME280;41754;51.498;7.540;2024-01-15T13:22:45;98818.56;;;2.05;85.16